12N weather

Aeroflex-Andover Airport
Andover, New Jersey, United States

Public forecast

Using degrees Fahrenheit for public forecast. Weather courtesy of forecast.io.

Current aviation weather report (METAR) for Aeroflex-Andover Airport

Retrieved 2020/07/09 23:54 UTC (34 minutes ago):

K12N 092354Z AUTO 14004KT 28/22 A2998 RMK AO1 SLP142 T02830217 10322 20283 53000

Closest aviation forecast (TAF) to Aeroflex-Andover Airport

Closest forecast is Newark Liberty International Airport, 32.1 nm (59.4 km) SE. Retrieved 2020-07-10 00:54 UTC (0 seconds ago):

TAF KEWR 092352Z 1000/1106 13005KT P6SM FEW015 SCT250 FM100100 09005KT P6SM SCT025 SCT250 FM100500 08005KT P6SM SCT025 BKN040 FM100700 08006KT P6SM VCSH BKN025 FM100900 07006KT 5SM -RA BR OVC015 FM101300 07011G17KT 5SM -RA BR OVC009 PROB30 1014/1018 12018G32KT 1SM +TSRA BKN007CB